createdAt,value
2022-11-20T00:02:02.471Z,2.21
2022-11-20T00:04:24.956Z,2.29
2022-11-20T00:06:47.953Z,2.41
2022-11-20T00:09:11.153Z,2.40
2022-11-20T00:11:33.843Z,2.44
2022-11-20T00:13:58.609Z,2.38
2022-11-20T00:16:23.623Z,2.29
2022-11-20T00:18:46.569Z,2.33
2022-11-20T00:21:14.064Z,2.37
2022-11-20T00:23:36.572Z,2.37
2022-11-20T00:26:06.640Z,2.31
2022-11-20T00:28:29.267Z,2.41
2022-11-20T00:30:52.100Z,2.38
2022-11-20T00:33:14.709Z,2.40
2022-11-20T00:35:37.278Z,2.44
2022-11-20T00:37:59.801Z,2.40
2022-11-20T00:40:22.425Z,2.40
2022-11-20T00:42:44.948Z,2.36
2022-11-20T00:45:08.090Z,2.36
2022-11-20T00:47:30.618Z,2.30
2022-11-20T00:49:53.280Z,2.26
2022-11-20T00:52:16.131Z,2.27
2022-11-20T00:54:38.806Z,2.34
2022-11-20T00:57:01.364Z,2.42
2022-11-20T00:59:24.190Z,2.31
2022-11-20T01:01:46.977Z,2.29
2022-11-20T01:04:09.653Z,2.30
2022-11-20T01:06:37.628Z,2.27
2022-11-20T01:09:04.152Z,2.34
2022-11-20T01:11:38.890Z,2.41
2022-11-20T01:14:03.583Z,2.47
2022-11-20T01:16:34.984Z,2.50
2022-11-20T01:19:00.643Z,2.42
2022-11-20T01:21:25.439Z,2.48
2022-11-20T01:23:49.294Z,2.37
2022-11-20T01:26:14.950Z,2.45
2022-11-20T01:28:37.830Z,2.44
2022-11-20T01:31:01.208Z,2.37
2022-11-20T01:33:24.178Z,2.45
2022-11-20T01:35:48.582Z,2.51
2022-11-20T01:38:11.681Z,2.47
2022-11-20T01:40:34.280Z,2.36
2022-11-20T01:43:23.694Z,2.40
2022-11-20T01:46:16.257Z,2.47
2022-11-20T01:48:51.016Z,2.44
2022-11-20T01:51:21.556Z,2.42
2022-11-20T01:53:45.010Z,2.44
2022-11-20T01:56:12.435Z,2.33
2022-11-20T01:58:39.581Z,2.31
2022-11-20T02:01:02.513Z,2.27
2022-11-20T02:03:25.725Z,2.33
2022-11-20T02:05:58.646Z,2.50
2022-11-20T02:08:22.772Z,2.50
2022-11-20T02:10:45.401Z,2.51
2022-11-20T02:13:27.433Z,2.57
2022-11-20T02:15:50.595Z,2.50
2022-11-20T02:18:15.884Z,2.58
2022-11-20T02:20:40.476Z,2.58
2022-11-20T02:23:18.024Z,2.60
2022-11-20T02:25:42.869Z,2.62
2022-11-20T02:28:06.432Z,2.61
2022-11-20T02:30:29.082Z,2.65
2022-11-20T02:32:51.877Z,2.65
2022-11-20T02:35:20.474Z,2.62
2022-11-20T02:37:48.103Z,2.50
2022-11-20T02:40:11.288Z,2.54
2022-11-20T02:42:33.826Z,2.60
2022-11-20T02:44:56.448Z,2.62
2022-11-20T02:47:19.112Z,2.57
2022-11-20T02:49:41.943Z,2.57
2022-11-20T02:52:04.676Z,2.51
2022-11-20T02:54:27.289Z,2.61
2022-11-20T02:56:49.834Z,2.57
2022-11-20T02:59:12.317Z,2.44
2022-11-20T03:01:35.105Z,2.52
2022-11-20T03:03:58.640Z,2.55
2022-11-20T03:06:21.399Z,2.62
2022-11-20T03:08:44.151Z,2.65
2022-11-20T03:11:08.260Z,2.57
2022-11-20T03:13:30.971Z,2.58
2022-11-20T03:15:53.607Z,2.57
2022-11-20T03:18:16.868Z,2.54
2022-11-20T03:20:39.648Z,2.58
2022-11-20T03:23:02.551Z,2.69
2022-11-20T03:25:25.114Z,2.89
2022-11-20T03:27:47.631Z,2.91
2022-11-20T03:30:10.799Z,3.10
2022-11-20T03:32:33.408Z,2.99
2022-11-20T03:34:56.127Z,2.96
2022-11-20T03:37:18.655Z,2.91
2022-11-20T03:39:41.148Z,3.05
2022-11-20T03:42:03.901Z,3.09
2022-11-20T03:44:26.507Z,3.33
2022-11-20T03:46:49.356Z,3.55
2022-11-20T03:49:11.987Z,3.50
2022-11-20T03:51:36.971Z,3.50
2022-11-20T03:54:03.585Z,3.60
2022-11-20T03:56:28.538Z,3.50
2022-11-20T03:58:51.533Z,3.43
2022-11-20T04:01:22.927Z,3.40
2022-11-20T04:03:46.455Z,3.37
2022-11-20T04:06:13.230Z,3.31
2022-11-20T04:08:36.222Z,3.38
2022-11-20T04:11:13.130Z,3.44
2022-11-20T04:13:35.737Z,3.47
2022-11-20T04:15:58.960Z,3.43
2022-11-20T04:18:21.626Z,3.37
2022-11-20T04:20:44.248Z,3.41
2022-11-20T04:23:06.835Z,3.46
2022-11-20T04:25:29.449Z,3.53
2022-11-20T04:27:52.127Z,3.36
2022-11-20T04:30:15.028Z,3.30
2022-11-20T04:32:37.678Z,3.34
2022-11-20T04:35:01.209Z,3.31
2022-11-20T04:37:23.726Z,3.30
2022-11-20T04:39:46.334Z,3.23
2022-11-20T04:42:29.160Z,3.20
2022-11-20T04:44:51.651Z,3.34
2022-11-20T04:47:14.153Z,3.34
2022-11-20T04:49:36.719Z,3.34
2022-11-20T04:51:59.447Z,3.33
2022-11-20T04:54:22.174Z,3.41
2022-11-20T04:56:44.918Z,3.43
2022-11-20T04:59:07.539Z,3.44
2022-11-20T05:01:30.474Z,3.40
2022-11-20T05:03:53.429Z,3.41
2022-11-20T05:06:19.818Z,3.57
2022-11-20T05:08:42.737Z,3.65
2022-11-20T05:11:08.653Z,3.67
2022-11-20T05:13:31.504Z,3.67
2022-11-20T05:15:54.047Z,3.64
2022-11-20T05:18:16.666Z,3.55
2022-11-20T05:20:39.221Z,3.58
2022-11-20T05:23:01.789Z,3.46
2022-11-20T05:25:24.319Z,3.38
2022-11-20T05:27:47.302Z,3.40
2022-11-20T05:30:10.676Z,3.50
2022-11-20T05:32:33.339Z,3.43
2022-11-20T05:34:55.904Z,3.28
2022-11-20T05:37:19.587Z,3.33
2022-11-20T05:39:42.216Z,3.38
2022-11-20T05:42:23.572Z,3.47
2022-11-20T05:44:46.064Z,3.53
2022-11-20T05:47:08.752Z,3.41
2022-11-20T05:49:31.423Z,3.46
2022-11-20T05:51:54.029Z,3.43
2022-11-20T05:54:16.621Z,3.50
2022-11-20T05:56:39.112Z,3.38
2022-11-20T05:59:01.683Z,3.44
2022-11-20T06:01:26.345Z,3.38
2022-11-20T06:03:51.548Z,3.38
2022-11-20T06:06:16.362Z,3.46
2022-11-20T06:08:39.217Z,3.44
2022-11-20T06:11:09.713Z,3.47
2022-11-20T06:13:32.469Z,3.43
2022-11-20T06:15:55.291Z,3.46
2022-11-20T06:18:18.832Z,3.46
2022-11-20T06:20:42.318Z,3.48
2022-11-20T06:23:04.967Z,3.43
2022-11-20T06:25:27.559Z,3.38
2022-11-20T06:27:50.263Z,3.30
2022-11-20T06:30:13.398Z,3.30
2022-11-20T06:32:36.004Z,3.36
2022-11-20T06:34:58.609Z,3.47
2022-11-20T06:37:21.589Z,3.47
2022-11-20T06:39:44.308Z,3.60
2022-11-20T06:42:06.910Z,3.74
2022-11-20T06:44:29.522Z,3.78
2022-11-20T06:46:52.102Z,3.79
2022-11-20T06:49:14.711Z,3.89
2022-11-20T06:51:37.316Z,3.96
2022-11-20T06:54:00.638Z,4.05
2022-11-20T06:56:23.284Z,4.14
2022-11-20T06:58:46.036Z,4.09
2022-11-20T07:01:13.638Z,4.02
2022-11-20T07:03:36.501Z,4.03
2022-11-20T07:06:00.898Z,4.03
2022-11-20T07:08:24.540Z,3.99
2022-11-20T07:10:47.176Z,3.99
2022-11-20T07:13:09.706Z,4.07
2022-11-20T07:15:32.284Z,4.10
2022-11-20T07:17:54.989Z,4.07
2022-11-20T07:20:18.010Z,4.26
2022-11-20T07:22:40.755Z,4.30
2022-11-20T07:25:03.436Z,4.37
2022-11-20T07:27:26.195Z,4.50
2022-11-20T07:29:48.805Z,4.37
2022-11-20T07:32:11.436Z,4.43
2022-11-20T07:34:34.031Z,4.44
2022-11-20T07:36:56.648Z,4.39
2022-11-20T07:39:19.678Z,4.39
2022-11-20T07:41:42.619Z,4.36
2022-11-20T07:44:05.499Z,4.51
2022-11-20T07:46:28.140Z,4.47
2022-11-20T07:48:50.911Z,4.46
2022-11-20T07:51:14.487Z,4.53
2022-11-20T07:53:37.201Z,4.65
2022-11-20T07:56:04.142Z,4.67
2022-11-20T07:58:29.552Z,4.70
2022-11-20T08:00:52.207Z,4.77
2022-11-20T08:03:17.100Z,4.93
2022-11-20T08:05:41.741Z,5.08
2022-11-20T08:08:04.603Z,5.12
2022-11-20T08:10:27.273Z,5.22
2022-11-20T08:13:12.201Z,5.32
2022-11-20T08:15:35.457Z,5.39
2022-11-20T08:20:55.253Z,5.53
2022-11-20T08:23:17.745Z,5.46
2022-11-20T08:25:40.419Z,5.37
2022-11-20T08:28:19.855Z,5.78
2022-11-20T08:30:43.772Z,5.75
2022-11-20T08:33:09.433Z,6.08
2022-11-20T08:35:38.856Z,6.16
2022-11-20T08:38:02.346Z,6.29
2022-11-20T08:40:25.157Z,6.40
2022-11-20T08:42:49.584Z,6.63
2022-11-20T08:45:12.131Z,6.80
2022-11-20T08:47:34.651Z,6.84
2022-11-20T08:49:57.308Z,6.92
2022-11-20T08:52:20.019Z,6.94
2022-11-20T08:54:42.799Z,6.85
2022-11-20T08:57:05.349Z,6.92
2022-11-20T08:59:50.964Z,6.90
2022-11-20T09:02:10.758Z,6.60
2022-11-20T09:04:33.320Z,6.67
2022-11-20T09:07:01.289Z,6.70
2022-11-20T09:09:24.558Z,6.51
2022-11-20T09:11:47.544Z,6.46
2022-11-20T09:14:10.074Z,6.43
2022-11-20T09:16:32.819Z,6.54
2022-11-20T09:21:38.512Z,6.44
2022-11-20T09:24:01.145Z,6.42
2022-11-20T09:26:23.706Z,6.42
2022-11-20T09:28:47.036Z,6.37
2022-11-20T09:31:16.716Z,6.19
2022-11-20T09:33:39.413Z,6.19
2022-11-20T09:36:02.083Z,6.30
2022-11-20T09:38:24.944Z,6.29
2022-11-20T09:41:03.584Z,6.16
2022-11-20T09:43:39.820Z,6.28
2022-11-20T09:46:20.881Z,6.32
2022-11-20T09:48:52.161Z,6.58
2022-11-20T09:51:38.030Z,6.53
2022-11-20T09:54:23.317Z,6.56
2022-11-20T09:56:54.011Z,6.63
2022-11-20T09:59:43.643Z,6.53
2022-11-20T10:02:16.285Z,6.60
2022-11-20T10:04:44.692Z,6.80
2022-11-20T10:07:33.106Z,6.91
2022-11-20T10:09:57.622Z,6.92
2022-11-20T10:12:48.402Z,6.91
2022-11-20T10:15:39.468Z,6.88
2022-11-20T10:18:18.266Z,6.91
2022-11-20T10:20:46.757Z,6.88
2022-11-20T10:23:48.163Z,7.05
2022-11-20T10:26:56.549Z,7.09
2022-11-20T10:29:24.747Z,7.09
2022-11-20T10:31:53.272Z,7.04
2022-11-20T10:34:34.754Z,7.14
2022-11-20T10:37:04.689Z,7.14
2022-11-20T10:39:32.540Z,7.15
2022-11-20T10:41:55.717Z,7.12
2022-11-20T10:44:40.393Z,7.19
2022-11-20T10:47:05.908Z,7.14
2022-11-20T10:49:29.092Z,7.20
2022-11-20T10:52:06.498Z,7.11
2022-11-20T10:54:46.851Z,7.02
2022-11-20T10:57:45.133Z,7.04
2022-11-20T11:00:10.816Z,7.08
2022-11-20T11:02:49.759Z,7.18
2022-11-20T11:05:44.148Z,7.32
2022-11-20T11:08:17.292Z,7.56
2022-11-20T11:10:52.275Z,7.52
2022-11-20T11:13:26.338Z,7.81
2022-11-20T11:15:48.886Z,7.99
2022-11-20T11:18:12.466Z,7.67
2022-11-20T11:20:35.330Z,7.83
2022-11-20T11:22:59.760Z,7.83
2022-11-20T11:25:38.335Z,7.84
2022-11-20T11:28:19.875Z,7.76
2022-11-20T11:30:44.832Z,7.80
2022-11-20T11:33:11.587Z,7.80
2022-11-20T11:35:34.756Z,7.73
2022-11-20T11:38:08.241Z,7.67
2022-11-20T11:40:33.753Z,7.73
2022-11-20T11:43:02.740Z,7.78
2022-11-20T11:45:25.954Z,7.90
2022-11-20T11:47:49.712Z,7.98
2022-11-20T11:50:17.347Z,7.90
2022-11-20T11:53:19.475Z,7.97
2022-11-20T11:56:07.755Z,7.98
2022-11-20T11:58:53.569Z,8.20
2022-11-20T12:01:32.834Z,8.22
2022-11-20T12:04:37.366Z,8.26
2022-11-20T12:07:24.242Z,8.29
2022-11-20T12:09:55.491Z,8.28
2022-11-20T12:12:23.539Z,8.26
2022-11-20T12:14:51.229Z,8.06
2022-11-20T12:17:15.143Z,8.08
2022-11-20T12:19:37.798Z,8.09
2022-11-20T12:22:14.867Z,8.09
2022-11-20T12:25:15.888Z,7.81
2022-11-20T12:28:19.154Z,7.95
2022-11-20T12:31:02.056Z,7.78
2022-11-20T12:33:51.487Z,7.90
2022-11-20T12:36:26.208Z,7.87
2022-11-20T12:39:31.193Z,7.97
2022-11-20T12:42:37.736Z,7.69
2022-11-20T12:45:32.793Z,7.88
2022-11-20T12:48:18.333Z,7.90
2022-11-20T12:51:21.606Z,8.14
2022-11-20T12:54:09.696Z,8.22
2022-11-20T12:57:03.781Z,8.11
2022-11-20T12:59:44.895Z,8.41
2022-11-20T13:02:29.367Z,8.56
2022-11-20T13:05:16.673Z,8.46
2022-11-20T13:07:39.891Z,8.46
2022-11-20T13:10:07.566Z,8.56
2022-11-20T13:12:37.145Z,8.36
2022-11-20T13:15:15.030Z,8.35
2022-11-20T13:17:44.238Z,8.29
2022-11-20T13:20:17.628Z,8.24
2022-11-20T13:22:48.995Z,8.28
2022-11-20T13:25:32.437Z,8.18
2022-11-20T13:27:57.655Z,8.01
2022-11-20T13:30:26.054Z,7.71
2022-11-20T13:32:54.018Z,7.80
2022-11-20T13:35:29.892Z,7.80
2022-11-20T13:38:14.289Z,7.71
2022-11-20T13:40:53.308Z,7.71
2022-11-20T13:43:39.815Z,7.73
2022-11-20T13:46:09.175Z,7.56
2022-11-20T13:48:49.914Z,7.49
2022-11-20T13:51:36.925Z,7.50
2022-11-20T13:54:35.259Z,7.35
2022-11-20T13:57:06.796Z,7.45
2022-11-20T13:59:42.071Z,7.45
2022-11-20T14:02:13.181Z,7.42
2022-11-20T14:04:43.323Z,7.40
2022-11-20T14:07:10.281Z,7.32
2022-11-20T14:09:35.222Z,7.26
2022-11-20T14:11:58.431Z,7.23
2022-11-20T14:14:24.312Z,7.16
2022-11-20T14:16:48.910Z,7.08
2022-11-20T14:19:20.721Z,6.98
2022-11-20T14:21:56.017Z,6.91
2022-11-20T14:24:24.473Z,7.01
2022-11-20T14:26:48.529Z,6.99
2022-11-20T14:29:31.658Z,7.07
2022-11-20T14:31:56.730Z,7.07
2022-11-20T14:34:25.839Z,7.07
2022-11-20T14:36:49.323Z,7.02
2022-11-20T14:39:20.947Z,7.01
2022-11-20T14:41:52.511Z,7.08
2022-11-20T14:44:15.689Z,7.01
2022-11-20T14:46:38.921Z,6.92
2022-11-20T14:49:05.061Z,6.88
2022-11-20T14:51:42.309Z,6.90
2022-11-20T14:54:17.133Z,6.81
2022-11-20T14:56:40.160Z,6.70
2022-11-20T14:59:03.386Z,6.64
2022-11-20T15:01:29.071Z,6.60
2022-11-20T15:04:01.265Z,6.49
2022-11-20T15:06:27.909Z,6.39
2022-11-20T15:08:54.332Z,6.25
2022-11-20T15:11:20.653Z,6.18
2022-11-20T15:13:43.396Z,6.12
2022-11-20T15:16:20.529Z,6.06
2022-11-20T15:18:43.359Z,6.05
2022-11-20T15:21:12.952Z,5.87
2022-11-20T15:23:35.698Z,5.81
2022-11-20T15:25:58.850Z,5.73
2022-11-20T15:28:34.926Z,5.73
2022-11-20T15:30:57.979Z,5.67
2022-11-20T15:33:21.250Z,5.53
2022-11-20T15:35:45.116Z,5.57
2022-11-20T15:38:07.765Z,5.48
2022-11-20T15:40:30.567Z,5.43
2022-11-20T15:43:12.538Z,5.37
2022-11-20T15:45:47.715Z,5.35
2022-11-20T15:48:14.671Z,5.09
2022-11-20T15:50:42.222Z,5.18
2022-11-20T15:53:05.456Z,5.08
2022-11-20T15:55:28.316Z,5.05
2022-11-20T15:57:50.857Z,4.98
2022-11-20T16:00:16.178Z,4.96
2022-11-20T16:02:41.138Z,4.98
2022-11-20T16:05:04.094Z,4.98
2022-11-20T16:07:27.157Z,4.82
2022-11-20T16:09:50.022Z,4.87
2022-11-20T16:12:35.492Z,4.87
2022-11-20T16:15:16.599Z,4.78
2022-11-20T16:17:45.136Z,4.85
2022-11-20T16:20:14.176Z,4.98
2022-11-20T16:22:37.072Z,4.91
2022-11-20T16:24:59.925Z,4.92
2022-11-20T16:27:22.742Z,4.92
2022-11-20T16:29:45.508Z,4.99
2022-11-20T16:32:09.688Z,4.98
2022-11-20T16:34:32.627Z,4.78
2022-11-20T16:36:55.411Z,4.84
2022-11-20T16:39:23.432Z,4.71
2022-11-20T16:41:46.906Z,4.71
2022-11-20T16:44:11.802Z,4.71
2022-11-20T16:46:34.748Z,4.75
2022-11-20T16:49:06.099Z,4.67
2022-11-20T16:51:30.777Z,4.67
2022-11-20T16:53:56.037Z,4.56
2022-11-20T16:56:24.432Z,4.51
2022-11-20T16:58:49.007Z,4.49
2022-11-20T17:01:14.291Z,4.37
2022-11-20T17:03:41.489Z,4.32
2022-11-20T17:06:14.730Z,4.33
2022-11-20T17:08:37.546Z,4.16
2022-11-20T17:11:05.999Z,4.17
2022-11-20T17:13:30.563Z,4.23
2022-11-20T17:15:53.395Z,4.28
2022-11-20T17:18:16.372Z,4.16
2022-11-20T17:20:39.144Z,4.06
2022-11-20T17:23:02.094Z,4.09
2022-11-20T17:25:24.688Z,4.13
2022-11-20T17:27:47.491Z,4.12
2022-11-20T17:30:10.516Z,4.14
2022-11-20T17:32:33.494Z,4.01
2022-11-20T17:34:56.440Z,4.03
2022-11-20T17:37:19.420Z,3.95
2022-11-20T17:39:42.443Z,3.88
2022-11-20T17:42:23.912Z,3.84
2022-11-20T17:44:47.465Z,3.78
2022-11-20T17:47:10.081Z,3.61
2022-11-20T17:49:32.956Z,3.63
2022-11-20T17:51:55.956Z,3.73
2022-11-20T17:54:18.835Z,3.65
2022-11-20T17:56:59.890Z,3.65
2022-11-20T17:59:23.028Z,3.73
2022-11-20T18:01:46.224Z,3.68
2022-11-20T18:04:09.594Z,3.64
2022-11-20T18:06:32.709Z,3.60
2022-11-20T18:08:55.581Z,3.60
2022-11-20T18:11:23.908Z,3.51
2022-11-20T18:14:07.661Z,3.38
2022-11-20T18:16:32.873Z,3.20
2022-11-20T18:18:59.681Z,3.34
2022-11-20T18:21:23.852Z,3.30
2022-11-20T18:23:46.699Z,3.30
2022-11-20T18:26:09.378Z,3.30
2022-11-20T18:28:32.234Z,3.31
2022-11-20T18:30:54.894Z,3.22
2022-11-20T18:33:18.739Z,3.28
2022-11-20T18:35:43.274Z,3.22
2022-11-20T18:38:06.757Z,3.17
2022-11-20T18:40:29.340Z,3.23
2022-11-20T18:43:11.085Z,3.26
2022-11-20T18:45:33.958Z,3.38
2022-11-20T18:47:56.922Z,3.41
2022-11-20T18:50:20.383Z,3.40
2022-11-20T18:52:44.780Z,3.48
2022-11-20T18:55:08.744Z,3.43
2022-11-20T18:57:32.454Z,3.47
2022-11-20T19:00:02.172Z,3.41
2022-11-20T19:02:30.111Z,3.41
2022-11-20T19:04:53.157Z,3.24
2022-11-20T19:07:16.413Z,3.28
2022-11-20T19:09:40.793Z,3.19
2022-11-20T19:12:04.670Z,3.09
2022-11-20T19:14:27.534Z,2.95
2022-11-20T19:16:51.463Z,2.82
2022-11-20T19:19:15.020Z,2.81
2022-11-20T19:21:38.175Z,2.77
2022-11-20T19:24:03.005Z,2.82
2022-11-20T19:26:26.835Z,2.91
2022-11-20T19:28:50.384Z,2.99
2022-11-20T19:31:19.145Z,3.05
2022-11-20T19:33:47.079Z,2.95
2022-11-20T19:36:18.506Z,2.91
2022-11-20T19:38:47.630Z,2.85
2022-11-20T19:41:11.104Z,2.84
2022-11-20T19:43:35.299Z,2.89
2022-11-20T19:45:58.713Z,2.93
2022-11-20T19:48:21.340Z,2.89
2022-11-20T19:50:44.464Z,2.92
2022-11-20T19:53:07.510Z,3.05
2022-11-20T19:55:30.415Z,3.02
2022-11-20T19:57:53.368Z,3.03
2022-11-20T20:00:24.524Z,3.06
2022-11-20T20:02:51.223Z,2.95
2022-11-20T20:05:14.073Z,2.92
2022-11-20T20:07:40.172Z,2.93
2022-11-20T20:10:03.204Z,2.93
2022-11-20T20:12:26.114Z,2.82
2022-11-20T20:14:48.628Z,2.89
2022-11-20T20:17:12.542Z,2.95
2022-11-20T20:19:36.065Z,2.92
2022-11-20T20:21:58.839Z,2.81
2022-11-20T20:24:21.294Z,2.84
2022-11-20T20:26:44.439Z,2.68
2022-11-20T20:29:07.462Z,2.69
2022-11-20T20:31:32.038Z,2.64
2022-11-20T20:33:55.336Z,2.60
2022-11-20T20:36:19.579Z,2.48
2022-11-20T20:38:43.454Z,2.44
2022-11-20T20:41:06.851Z,2.41
2022-11-20T20:43:30.000Z,2.40
2022-11-20T20:45:53.990Z,2.37
2022-11-20T20:48:19.418Z,2.26
2022-11-20T20:50:52.637Z,2.30
2022-11-20T20:53:15.464Z,2.26
2022-11-20T20:55:38.735Z,2.21
2022-11-20T20:58:01.795Z,2.26
2022-11-20T21:00:24.384Z,2.24
2022-11-20T21:02:47.128Z,2.20
2022-11-20T21:05:10.094Z,2.29
2022-11-20T21:07:32.866Z,2.29
2022-11-20T21:09:55.680Z,2.37
2022-11-20T21:12:19.503Z,2.41
2022-11-20T21:14:42.632Z,2.41
2022-11-20T21:17:05.439Z,2.41
2022-11-20T21:19:28.213Z,2.40
2022-11-20T21:22:00.293Z,2.42
2022-11-20T21:24:23.603Z,2.41
2022-11-20T21:26:46.605Z,2.34
2022-11-20T21:29:09.905Z,2.33
2022-11-20T21:31:32.609Z,2.23
2022-11-20T21:33:56.880Z,2.26
2022-11-20T21:36:21.488Z,2.26
2022-11-20T21:38:44.703Z,2.33
2022-11-20T21:41:09.619Z,2.27
2022-11-20T21:43:32.746Z,2.16
2022-11-20T21:46:01.314Z,2.17
2022-11-20T21:48:28.468Z,2.23
2022-11-20T21:50:51.242Z,2.23
2022-11-20T21:53:13.902Z,2.19
2022-11-20T21:55:36.742Z,2.14
2022-11-20T21:57:59.364Z,2.06
2022-11-20T22:00:22.038Z,2.03
2022-11-20T22:02:44.553Z,2.12
2022-11-20T22:05:08.068Z,2.13
2022-11-20T22:07:30.726Z,2.12
2022-11-20T22:09:53.349Z,2.14
2022-11-20T22:12:15.933Z,2.07
2022-11-20T22:14:38.440Z,2.12
2022-11-20T22:17:01.284Z,2.12
2022-11-20T22:19:24.267Z,2.17
2022-11-20T22:21:47.297Z,2.23
2022-11-20T22:24:13.299Z,2.24
2022-11-20T22:26:40.225Z,2.21
2022-11-20T22:29:03.162Z,2.23
2022-11-20T22:31:28.241Z,2.19
2022-11-20T22:33:51.313Z,2.19
2022-11-20T22:36:19.731Z,2.20
2022-11-20T22:38:42.969Z,2.17
2022-11-20T22:41:06.750Z,2.21
2022-11-20T22:43:29.565Z,2.16
2022-11-20T22:45:52.265Z,2.06
2022-11-20T22:48:14.914Z,2.07
2022-11-20T22:50:37.444Z,2.21
2022-11-20T22:53:00.108Z,2.19
2022-11-20T22:55:22.961Z,2.23
2022-11-20T22:57:45.785Z,2.21
2022-11-20T23:00:09.181Z,2.26
2022-11-20T23:02:31.849Z,2.19
2022-11-20T23:04:54.508Z,2.26
2022-11-20T23:07:17.168Z,2.19
2022-11-20T23:09:39.910Z,2.23
2022-11-20T23:12:02.481Z,2.31
2022-11-20T23:14:27.716Z,2.09
2022-11-20T23:16:50.750Z,2.02
2022-11-20T23:19:14.725Z,1.96
2022-11-20T23:21:39.147Z,1.98
2022-11-20T23:24:02.104Z,2.07
2022-11-20T23:26:27.598Z,2.17
2022-11-20T23:28:50.463Z,2.24
2022-11-20T23:31:14.399Z,2.30
2022-11-20T23:33:41.562Z,2.36
2022-11-20T23:36:05.121Z,2.36
2022-11-20T23:38:27.788Z,2.45
2022-11-20T23:40:51.722Z,2.40
2022-11-20T23:43:15.189Z,2.33
2022-11-20T23:45:39.534Z,2.33
2022-11-20T23:48:02.173Z,2.33
2022-11-20T23:50:24.992Z,2.38
2022-11-20T23:52:47.772Z,2.31
2022-11-20T23:55:10.281Z,2.30
2022-11-20T23:57:32.852Z,2.27
2022-11-20T23:59:55.661Z,2.23
